createdAt,value
2022-09-26T00:03:06.705Z,1.55
2022-09-26T00:08:08.836Z,1.45
2022-09-26T00:13:10.867Z,1.35
2022-09-26T00:18:13.095Z,1.30
2022-09-26T00:23:15.840Z,1.30
2022-09-26T00:28:19.208Z,1.40
2022-09-26T00:33:21.371Z,1.13
2022-09-26T00:38:23.715Z,1.42
2022-09-26T00:43:31.845Z,1.60
2022-09-26T00:48:37.052Z,1.40
2022-09-26T00:53:44.198Z,1.08
2022-09-26T00:58:52.266Z,1.25
2022-09-26T01:03:54.873Z,1.13
2022-09-26T01:09:01.659Z,1.50
2022-09-26T01:14:05.104Z,1.42
2022-09-26T01:19:23.960Z,1.50
2022-09-26T01:24:31.772Z,1.27
2022-09-26T01:30:06.587Z,1.20
2022-09-26T01:35:35.512Z,1.10
2022-09-26T01:40:49.929Z,1.30
2022-09-26T01:46:09.465Z,1.42
2022-09-26T01:51:17.310Z,1.17
2022-09-26T01:56:23.748Z,1.55
2022-09-26T02:01:30.030Z,1.63
2022-09-26T02:06:58.117Z,1.40
2022-09-26T02:12:06.716Z,1.23
2022-09-26T02:17:13.437Z,1.30
2022-09-26T02:22:15.853Z,1.55
2022-09-26T02:27:18.098Z,1.45
2022-09-26T02:32:25.169Z,1.33
2022-09-26T02:37:32.497Z,1.40
2022-09-26T02:42:48.429Z,1.30
2022-09-26T02:48:03.171Z,1.70
2022-09-26T02:53:34.460Z,1.38
2022-09-26T02:58:48.736Z,1.30
2022-09-26T03:04:27.866Z,1.35
2022-09-26T03:09:31.504Z,1.15
2022-09-26T03:14:36.592Z,1.10
2022-09-26T03:19:45.884Z,1.27
2022-09-26T03:24:48.325Z,1.20
2022-09-26T03:29:50.635Z,1.40
2022-09-26T03:34:57.492Z,1.10
2022-09-26T03:39:59.598Z,1.50
2022-09-26T03:45:21.857Z,1.30
2022-09-26T03:50:35.960Z,1.40
2022-09-26T03:55:38.260Z,1.10
2022-09-26T04:00:40.379Z,1.10
2022-09-26T04:05:43.615Z,1.38
2022-09-26T04:10:46.602Z,1.40
2022-09-26T04:15:56.287Z,1.38
2022-09-26T04:21:09.297Z,1.40
2022-09-26T04:26:21.741Z,1.40
2022-09-26T04:31:30.783Z,1.20
2022-09-26T04:36:42.954Z,1.23
2022-09-26T04:41:45.104Z,1.40
2022-09-26T04:46:48.577Z,1.30
2022-09-26T04:51:52.309Z,1.45
2022-09-26T04:56:54.428Z,1.20
2022-09-26T05:01:57.683Z,1.40
2022-09-26T05:07:20.400Z,1.33
2022-09-26T05:12:22.476Z,1.35
2022-09-26T05:17:27.205Z,1.48
2022-09-26T05:22:32.795Z,1.20
2022-09-26T05:27:36.460Z,1.48
2022-09-26T05:32:39.697Z,1.33
2022-09-26T05:37:41.926Z,2.00
2022-09-26T05:42:43.984Z,1.25
2022-09-26T05:47:48.416Z,1.45
2022-09-26T05:52:51.669Z,1.45
2022-09-26T05:57:59.132Z,1.10
2022-09-26T06:03:15.990Z,1.30
2022-09-26T06:08:28.951Z,1.50
2022-09-26T06:14:01.046Z,1.60
2022-09-26T06:19:03.416Z,1.33
2022-09-26T06:24:06.392Z,1.30
2022-09-26T06:29:10.810Z,1.13
2022-09-26T06:34:15.737Z,1.60
2022-09-26T06:39:44.223Z,1.35
2022-09-26T06:44:46.789Z,1.45
2022-09-26T06:50:01.088Z,1.40
2022-09-26T06:55:08.782Z,1.33
2022-09-26T07:00:14.640Z,1.52
2022-09-26T07:05:35.852Z,1.40
2022-09-26T07:10:38.876Z,1.60
2022-09-26T07:15:46.210Z,1.80
2022-09-26T07:21:08.934Z,1.38
2022-09-26T07:26:25.624Z,1.50
2022-09-26T07:31:27.833Z,1.38
2022-09-26T07:36:41.968Z,1.80
2022-09-26T07:41:46.937Z,1.15
2022-09-26T07:47:07.626Z,1.60
2022-09-26T07:52:10.448Z,1.42
2022-09-26T07:57:22.789Z,1.73
2022-09-26T08:03:05.005Z,1.90
2022-09-26T08:08:10.928Z,1.75
2022-09-26T08:13:33.776Z,1.88
2022-09-26T08:18:54.213Z,1.70
2022-09-26T08:23:56.990Z,1.70
2022-09-26T08:29:18.118Z,1.80
2022-09-26T08:34:25.633Z,1.83
2022-09-26T08:39:56.586Z,1.73
2022-09-26T08:45:58.554Z,2.13
2022-09-26T08:51:40.876Z,2.30
2022-09-26T08:56:57.976Z,1.80
2022-09-26T09:02:05.292Z,1.70
2022-09-26T09:07:26.261Z,2.00
2022-09-26T09:12:52.989Z,2.05
2022-09-26T09:18:30.571Z,1.70
2022-09-26T09:24:17.187Z,1.90
2022-09-26T09:29:57.040Z,2.50
2022-09-26T09:35:46.678Z,1.60
2022-09-26T09:41:31.552Z,1.80
2022-09-26T09:46:42.819Z,1.83
2022-09-26T09:52:09.813Z,1.85
2022-09-26T09:57:22.040Z,2.05
2022-09-26T10:02:47.910Z,1.88
2022-09-26T10:07:59.320Z,1.67
2022-09-26T10:13:22.571Z,1.60
2022-09-26T10:18:59.514Z,1.80
2022-09-26T10:24:07.409Z,1.88
2022-09-26T10:29:37.835Z,1.83
2022-09-26T10:34:40.727Z,2.15
2022-09-26T10:40:02.003Z,1.55
2022-09-26T10:45:17.716Z,2.05
2022-09-26T10:50:50.580Z,1.80
2022-09-26T11:01:29.056Z,1.63
2022-09-26T11:06:45.725Z,1.65
2022-09-26T11:12:55.085Z,1.70
2022-09-26T11:17:58.692Z,2.30
2022-09-26T11:23:37.621Z,1.77
2022-09-26T11:28:45.621Z,1.85
2022-09-26T11:34:27.725Z,1.80
2022-09-26T11:40:03.870Z,1.58
2022-09-26T11:45:25.797Z,2.33
2022-09-26T11:51:09.396Z,1.75
2022-09-26T11:56:58.182Z,1.70
2022-09-26T12:07:43.821Z,1.58
2022-09-26T12:13:34.469Z,1.60
2022-09-26T12:18:43.732Z,1.90
2022-09-26T12:24:24.213Z,1.55
2022-09-26T12:29:45.511Z,1.60
2022-09-26T12:35:02.192Z,1.60
2022-09-26T12:40:37.181Z,2.28
2022-09-26T12:46:07.694Z,1.55
2022-09-26T12:51:40.336Z,1.42
2022-09-26T12:57:07.992Z,1.80
2022-09-26T13:02:17.369Z,1.30
2022-09-26T13:13:20.251Z,1.40
2022-09-26T13:18:33.159Z,1.75
2022-09-26T13:24:00.369Z,1.70
2022-09-26T13:29:17.936Z,1.60
2022-09-26T13:35:06.754Z,1.55
2022-09-26T13:40:24.412Z,1.42
2022-09-26T13:45:36.369Z,1.58
2022-09-26T13:50:48.089Z,1.50
2022-09-26T13:56:30.687Z,1.73
2022-09-26T14:01:33.870Z,1.60
2022-09-26T14:06:35.933Z,1.60
2022-09-26T14:11:49.964Z,1.73
2022-09-26T14:16:52.911Z,1.13
2022-09-26T14:22:05.570Z,1.33
2022-09-26T14:27:10.577Z,1.58
2022-09-26T14:32:19.007Z,1.73
2022-09-26T14:37:26.860Z,1.65
2022-09-26T14:42:44.086Z,2.03
2022-09-26T14:48:03.801Z,1.23
2022-09-26T14:53:21.596Z,2.13
2022-09-26T14:58:34.413Z,1.60
2022-09-26T15:03:38.120Z,1.15
2022-09-26T15:13:47.138Z,1.23
2022-09-26T15:18:55.744Z,1.77
2022-09-26T15:23:57.987Z,1.33
2022-09-26T15:29:01.608Z,1.40
2022-09-26T15:34:30.769Z,1.63
2022-09-26T15:39:32.789Z,1.50
2022-09-26T15:44:35.542Z,1.58
2022-09-26T15:49:39.908Z,1.73
2022-09-26T15:54:42.129Z,1.67
2022-09-26T15:59:44.659Z,1.73
2022-09-26T16:04:51.909Z,1.92
2022-09-26T16:09:56.357Z,1.30
2022-09-26T16:15:07.658Z,1.50
2022-09-26T16:20:16.042Z,1.58
2022-09-26T16:25:20.291Z,1.30
2022-09-26T16:30:28.891Z,1.40
2022-09-26T16:35:35.563Z,1.80
2022-09-26T16:40:37.634Z,1.40
2022-09-26T16:45:51.435Z,1.55
2022-09-26T16:51:13.773Z,1.48
2022-09-26T16:56:19.571Z,1.50
2022-09-26T17:01:40.193Z,1.33
2022-09-26T17:06:42.366Z,1.50
2022-09-26T17:11:47.849Z,1.48
2022-09-26T17:16:55.326Z,1.77
2022-09-26T17:21:57.438Z,1.40
2022-09-26T17:27:02.047Z,1.20
2022-09-26T17:32:09.592Z,1.73
2022-09-26T17:37:18.024Z,1.50
2022-09-26T17:42:20.618Z,1.60
2022-09-26T17:47:23.700Z,1.42
2022-09-26T17:52:30.268Z,2.13
2022-09-26T17:57:35.341Z,1.35
2022-09-26T18:02:46.281Z,1.48
2022-09-26T18:07:52.037Z,1.88
2022-09-26T18:13:15.536Z,1.77
2022-09-26T18:18:20.174Z,1.60
2022-09-26T18:23:26.167Z,1.30
2022-09-26T18:28:28.443Z,1.52
2022-09-26T18:33:37.208Z,1.40
2022-09-26T18:38:39.983Z,1.33
2022-09-26T18:43:43.036Z,1.55
2022-09-26T18:48:46.573Z,1.30
2022-09-26T18:53:48.745Z,1.38
2022-09-26T18:58:50.885Z,1.33
2022-09-26T19:03:53.381Z,1.90
2022-09-26T19:09:02.125Z,1.38
2022-09-26T19:14:13.629Z,1.55
2022-09-26T19:19:16.872Z,1.40
2022-09-26T19:24:36.565Z,1.40
2022-09-26T19:29:52.252Z,1.20
2022-09-26T19:35:25.296Z,1.48
2022-09-26T19:40:28.158Z,1.02
2022-09-26T19:45:32.309Z,1.40
2022-09-26T19:50:36.001Z,1.35
2022-09-26T19:55:39.533Z,1.20
2022-09-26T20:00:44.771Z,1.20
2022-09-26T20:05:49.509Z,1.55
2022-09-26T20:10:56.625Z,1.20
2022-09-26T20:15:58.664Z,1.20
2022-09-26T20:21:00.713Z,1.20
2022-09-26T20:26:02.822Z,1.02
2022-09-26T20:31:17.610Z,1.20
2022-09-26T20:36:29.339Z,1.10
2022-09-26T20:41:38.943Z,1.05
2022-09-26T20:46:52.846Z,1.08
2022-09-26T20:51:57.696Z,1.40
2022-09-26T20:57:01.510Z,0.90
2022-09-26T21:02:23.937Z,1.00
2022-09-26T21:07:26.309Z,1.10
2022-09-26T21:12:28.437Z,0.98
2022-09-26T21:17:31.118Z,1.00
2022-09-26T21:22:34.223Z,1.10
2022-09-26T21:27:36.890Z,1.17
2022-09-26T21:32:43.153Z,1.10
2022-09-26T21:37:51.357Z,0.90
2022-09-26T21:43:02.939Z,1.17
2022-09-26T21:48:05.064Z,1.00
2022-09-26T21:53:13.256Z,1.20
2022-09-26T21:58:22.096Z,1.02
2022-09-26T22:03:24.418Z,1.20
2022-09-26T22:08:26.489Z,1.00
2022-09-26T22:13:28.626Z,0.80
2022-09-26T22:18:31.226Z,1.10
2022-09-26T22:23:34.122Z,1.05
2022-09-26T22:28:36.476Z,0.95
2022-09-26T22:33:39.252Z,0.90
2022-09-26T22:38:41.289Z,1.00
2022-09-26T22:43:43.300Z,0.65
2022-09-26T22:48:46.934Z,0.90
2022-09-26T22:53:49.086Z,0.50
2022-09-26T22:58:52.490Z,0.93
2022-09-26T23:03:54.713Z,0.80
2022-09-26T23:08:57.438Z,0.90
2022-09-26T23:13:59.429Z,1.00
2022-09-26T23:19:01.633Z,0.73
2022-09-26T23:24:05.040Z,0.70
2022-09-26T23:34:09.133Z,0.60
2022-09-26T23:39:11.247Z,0.65
2022-09-26T23:44:13.732Z,0.80
2022-09-26T23:49:15.913Z,0.90
2022-09-26T23:54:18.084Z,0.93
2022-09-26T23:59:20.103Z,0.63
